Aviation Digital Data Service (ADDS)

Output produced by METARs form (0620 UTC 22 December 2014)
found at http://aviationweather.gov/adds/metars/
 
KISP 220531Z 2206/2306 02005KT P6SM OVC007 
     FM221100 06007KT P6SM OVC007 
     FM221700 07007KT 6SM -RA BKN008 OVC020 
     FM230000 08009KT 3SM -RA BR OVC004